Time,TemperatureF,DewpointF,PressureIn,WindDirection,WindDirectionDegrees,WindSpeedMPH,WindSpeedGustMPH,Humidity,HourlyPrecipIn,Conditions,Clouds,dailyrainin,SoftwareType,DateUTC
2013-06-26 00:03:00,50.7,32.7,31.11,NE,45,4.0,8.0,50,0.00,,,0.00,meteohub,2013-06-26 06:03:00,
2013-06-26 00:08:00,50.5,33.1,31.12,South,180,7.0,8.0,51,0.00,,,0.00,meteohub,2013-06-26 06:08:00,
2013-06-26 00:13:00,50.7,33.3,31.12,ENE,68,4.0,8.0,51,0.00,,,0.00,meteohub,2013-06-26 06:13:00,
2013-06-26 00:18:00,50.9,33.4,31.11,South,180,2.0,7.0,51,0.00,,,0.00,meteohub,2013-06-26 06:18:00,
2013-06-26 00:23:00,50.7,33.3,31.11,SW,225,1.0,7.0,51,0.00,,,0.00,meteohub,2013-06-26 06:23:00,
2013-06-26 00:28:00,50.2,32.7,31.12,South,180,2.0,5.0,51,0.00,,,0.00,meteohub,2013-06-26 06:28:00,
2013-06-26 00:33:00,49.3,32.4,31.12,South,180,2.0,4.0,52,0.00,,,0.00,meteohub,2013-06-26 06:33:00,
2013-06-26 00:38:00,48.7,32.4,31.12,South,180,1.0,4.0,53,0.00,,,0.00,meteohub,2013-06-26 06:38:00,
2013-06-26 00:43:00,48.0,32.2,31.12,East,90,4.0,4.0,54,0.00,,,0.00,meteohub,2013-06-26 06:43:00,
2013-06-26 00:48:00,47.8,32.0,31.12,East,90,3.0,4.0,54,0.00,,,0.00,meteohub,2013-06-26 06:48:00,
2013-06-26 00:53:00,48.2,32.4,31.11,East,90,3.0,4.0,54,0.00,,,0.00,meteohub,2013-06-26 06:53:00,
2013-06-26 00:58:00,48.6,32.7,31.12,South,180,2.0,6.0,54,0.00,,,0.00,meteohub,2013-06-26 06:58:00,
2013-06-26 01:04:00,48.2,32.4,31.12,SE,135,2.0,6.0,54,0.00,,,0.00,meteohub,2013-06-26 07:04:00,
2013-06-26 01:09:00,47.7,32.7,31.12,SE,135,2.0,6.0,56,0.00,,,0.00,meteohub,2013-06-26 07:09:00,
2013-06-26 01:14:00,47.3,32.4,31.12,SE,135,2.0,4.0,56,0.00,,,0.00,meteohub,2013-06-26 07:14:00,
2013-06-26 01:19:00,47.1,32.2,31.11,SE,135,3.0,4.0,56,0.00,,,0.00,meteohub,2013-06-26 07:19:00,
2013-06-26 01:24:00,46.8,31.8,31.11,South,180,2.0,4.0,56,0.00,,,0.00,meteohub,2013-06-26 07:24:00,
2013-06-26 01:29:00,46.2,31.8,31.11,SE,135,4.0,4.0,57,0.00,,,0.00,meteohub,2013-06-26 07:29:00,
2013-06-26 01:34:00,46.2,32.2,31.12,SE,135,4.0,4.0,58,0.00,,,0.00,meteohub,2013-06-26 07:34:00,
2013-06-26 01:39:00,46.6,32.2,31.12,East,90,5.0,5.0,57,0.00,,,0.00,meteohub,2013-06-26 07:39:00,
2013-06-26 01:44:00,46.8,32.7,31.12,East,90,7.0,7.0,58,0.00,,,0.00,meteohub,2013-06-26 07:44:00,
2013-06-26 01:49:00,47.1,33.1,31.11,SE,135,6.0,7.0,58,0.00,,,0.00,meteohub,2013-06-26 07:49:00,
2013-06-26 01:54:00,47.5,33.8,31.11,East,90,4.0,8.0,59,0.00,,,0.00,meteohub,2013-06-26 07:54:00,
2013-06-26 01:59:00,47.5,33.8,31.11,East,90,3.0,8.0,59,0.00,,,0.00,meteohub,2013-06-26 07:59:00,
2013-06-26 02:04:00,47.5,33.8,31.11,East,90,4.0,8.0,59,0.00,,,0.00,meteohub,2013-06-26 08:04:00,
2013-06-26 02:09:00,47.3,32.4,31.11,SE,135,2.0,8.0,56,0.00,,,0.00,meteohub,2013-06-26 08:09:00,
2013-06-26 02:14:00,46.8,31.8,31.11,NE,45,4.0,6.0,56,0.00,,,0.00,meteohub,2013-06-26 08:14:00,
2013-06-26 02:19:00,46.0,31.6,31.12,ESE,113,5.0,5.0,57,0.00,,,0.00,meteohub,2013-06-26 08:19:00,
2013-06-26 02:24:00,46.2,31.8,31.12,SE,135,4.0,4.0,57,0.00,,,0.00,meteohub,2013-06-26 08:24:00,
2013-06-26 02:29:00,46.6,32.2,31.12,South,180,2.0,5.0,57,0.00,,,0.00,meteohub,2013-06-26 08:29:00,
2013-06-26 02:34:00,46.2,32.2,31.12,SW,225,0.0,5.0,58,0.00,,,0.00,meteohub,2013-06-26 08:34:00,
2013-06-26 02:39:00,45.7,31.8,31.11,SE,135,4.0,4.0,58,0.00,,,0.00,meteohub,2013-06-26 08:39:00,
2013-06-26 02:44:00,45.5,31.6,31.12,South,180,2.0,4.0,58,0.00,,,0.00,meteohub,2013-06-26 08:44:00,
2013-06-26 02:49:00,45.5,31.6,31.12,South,180,2.0,4.0,58,0.00,,,0.00,meteohub,2013-06-26 08:49:00,
2013-06-26 02:54:00,45.1,31.6,31.12,NE,45,4.0,4.0,59,0.00,,,0.00,meteohub,2013-06-26 08:54:00,
2013-06-26 02:59:00,44.4,31.5,31.12,NE,45,2.0,4.0,60,0.00,,,0.00,meteohub,2013-06-26 08:59:00,
2013-06-26 03:04:00,43.9,30.9,31.12,NE,45,2.0,4.0,60,0.00,,,0.00,meteohub,2013-06-26 09:04:00,
2013-06-26 03:09:00,43.2,30.6,31.12,NE,45,3.0,4.0,61,0.00,,,0.00,meteohub,2013-06-26 09:09:00,
2013-06-26 03:14:00,43.0,30.4,31.12,SE,135,1.0,4.0,61,0.00,,,0.00,meteohub,2013-06-26 09:14:00,
2013-06-26 03:19:00,42.6,30.6,31.12,East,90,2.0,4.0,62,0.00,,,0.00,meteohub,2013-06-26 09:19:00,
2013-06-26 03:24:00,43.0,30.9,31.11,SE,135,4.0,4.0,62,0.00,,,0.00,meteohub,2013-06-26 09:24:00,
2013-06-26 03:29:00,43.7,31.5,31.11,SE,135,2.0,6.0,62,0.00,,,0.00,meteohub,2013-06-26 09:29:00,
2013-06-26 03:34:00,44.1,31.8,31.12,SW,225,1.0,6.0,62,0.00,,,0.00,meteohub,2013-06-26 09:34:00,
2013-06-26 03:39:00,43.5,31.3,31.12,NE,45,3.0,6.0,62,0.00,,,0.00,meteohub,2013-06-26 09:39:00,
2013-06-26 03:44:00,43.2,31.1,31.12,NNW,338,2.0,4.0,62,0.00,,,0.00,meteohub,2013-06-26 09:44:00,
2013-06-26 03:49:00,42.4,30.7,31.12,NE,45,3.0,4.0,63,0.00,,,0.00,meteohub,2013-06-26 09:49:00,
2013-06-26 03:54:00,41.9,30.6,31.12,East,90,2.0,4.0,64,0.00,,,0.00,meteohub,2013-06-26 09:54:00,
2013-06-26 03:59:00,41.4,30.6,31.12,North,0,2.0,4.0,65,0.00,,,0.00,meteohub,2013-06-26 09:59:00,
2013-06-26 04:04:00,41.4,30.6,31.12,North,0,2.0,3.0,65,0.00,,,0.00,meteohub,2013-06-26 10:04:00,
2013-06-26 04:09:00,40.8,30.7,31.12,NE,45,3.0,3.0,67,0.00,,,0.00,meteohub,2013-06-26 10:09:00,
2013-06-26 04:14:00,41.0,30.6,31.13,South,180,2.0,3.0,66,0.00,,,0.00,meteohub,2013-06-26 10:14:00,
2013-06-26 04:19:00,41.2,31.1,31.12,East,90,4.0,4.0,67,0.00,,,0.00,meteohub,2013-06-26 10:19:00,
2013-06-26 04:25:00,41.7,31.3,31.13,NE,45,3.0,5.0,66,0.00,,,0.00,meteohub,2013-06-26 10:25:00,
2013-06-26 04:30:00,42.1,31.5,31.13,East,90,3.0,5.0,66,0.00,,,0.00,meteohub,2013-06-26 10:30:00,
2013-06-26 04:35:00,41.9,30.9,31.13,East,90,2.0,5.0,65,0.00,,,0.00,meteohub,2013-06-26 10:35:00,
2013-06-26 04:40:00,41.7,30.7,31.12,ENE,68,4.0,4.0,65,0.00,,,0.00,meteohub,2013-06-26 10:40:00,
2013-06-26 04:45:00,41.7,30.7,31.13,South,180,3.0,4.0,65,0.00,,,0.00,meteohub,2013-06-26 10:45:00,
2013-06-26 04:50:00,42.3,31.3,31.13,East,90,4.0,4.0,65,0.00,,,0.00,meteohub,2013-06-26 10:50:00,
2013-06-26 04:55:00,42.8,31.5,31.13,East,90,6.0,6.0,64,0.00,,,0.00,meteohub,2013-06-26 10:55:00,
2013-06-26 05:00:00,43.0,31.6,31.13,SE,135,5.0,5.0,64,0.00,,,0.00,meteohub,2013-06-26 11:00:00,
2013-06-26 05:05:00,43.2,31.8,31.13,SE,135,4.0,8.0,64,0.00,,,0.00,meteohub,2013-06-26 11:05:00,
2013-06-26 05:10:00,43.5,31.8,31.13,SE,135,3.0,8.0,63,0.00,,,0.00,meteohub,2013-06-26 11:10:00,
2013-06-26 05:15:00,43.5,31.8,31.13,SE,135,4.0,8.0,63,0.00,,,0.00,meteohub,2013-06-26 11:15:00,
2013-06-26 05:20:00,43.7,31.5,31.13,East,90,3.0,6.0,62,0.00,,,0.00,meteohub,2013-06-26 11:20:00,
2013-06-26 05:25:00,43.3,31.3,31.13,ESE,113,5.0,6.0,62,0.00,,,0.00,meteohub,2013-06-26 11:25:00,
2013-06-26 05:30:00,43.3,31.3,31.13,East,90,4.0,6.0,62,0.00,,,0.00,meteohub,2013-06-26 11:30:00,
2013-06-26 05:35:00,43.2,31.1,31.13,West,270,2.0,6.0,62,0.00,,,0.00,meteohub,2013-06-26 11:35:00,
2013-06-26 05:40:00,42.8,30.7,31.13,East,90,4.0,5.0,62,0.00,,,0.00,meteohub,2013-06-26 11:40:00,
2013-06-26 05:45:00,41.7,30.4,31.13,North,0,1.0,4.0,64,0.00,,,0.00,meteohub,2013-06-26 11:45:00,
2013-06-26 05:50:00,41.4,30.0,31.14,SE,135,4.0,4.0,64,0.00,,,0.00,meteohub,2013-06-26 11:50:00,
2013-06-26 05:55:00,41.4,30.6,31.14,SW,225,2.0,4.0,65,0.00,,,0.00,meteohub,2013-06-26 11:55:00,
2013-06-26 06:00:00,41.2,30.7,31.14,North,0,3.0,4.0,66,0.00,,,0.00,meteohub,2013-06-26 12:00:00,
2013-06-26 06:06:00,41.2,30.7,31.14,North,0,3.0,4.0,66,0.00,,,0.00,meteohub,2013-06-26 12:06:00,
2013-06-26 06:11:00,40.5,30.4,31.14,SW,225,2.0,3.0,67,0.00,,,0.00,meteohub,2013-06-26 12:11:00,
2013-06-26 06:16:00,40.5,30.7,31.14,NW,315,0.0,3.0,68,0.00,,,0.00,meteohub,2013-06-26 12:16:00,
2013-06-26 06:21:00,40.5,31.1,31.14,SE,135,2.0,3.0,69,0.00,,,0.00,meteohub,2013-06-26 12:21:00,
2013-06-26 06:26:00,40.8,31.5,31.14,SE,135,4.0,4.0,69,0.00,,,0.00,meteohub,2013-06-26 12:26:00,
2013-06-26 06:31:00,41.2,31.5,31.14,SE,135,3.0,4.0,68,0.00,,,0.00,meteohub,2013-06-26 12:31:00,
2013-06-26 06:36:00,41.7,32.4,31.14,SE,135,7.0,7.0,69,0.00,,,0.00,meteohub,2013-06-26 12:36:00,
2013-06-26 06:41:00,42.3,32.5,31.15,NE,45,4.0,7.0,68,0.00,,,0.00,meteohub,2013-06-26 12:41:00,
2013-06-26 06:46:00,42.6,32.4,31.14,East,90,4.0,8.0,67,0.00,,,0.00,meteohub,2013-06-26 12:46:00,
2013-06-26 06:51:00,43.0,32.0,31.15,SE,135,4.0,8.0,65,0.00,,,0.00,meteohub,2013-06-26 12:51:00,
2013-06-26 06:56:00,43.3,32.4,31.15,East,90,6.0,7.0,65,0.00,,,0.00,meteohub,2013-06-26 12:56:00,
2013-06-26 07:01:00,43.7,32.4,31.15,East,90,4.0,8.0,64,0.00,,,0.00,meteohub,2013-06-26 13:01:00,
2013-06-26 07:06:00,43.9,32.2,31.15,East,90,3.0,8.0,63,0.00,,,0.00,meteohub,2013-06-26 13:06:00,
2013-06-26 07:11:00,44.1,32.4,31.15,South,180,4.0,8.0,63,0.00,,,0.00,meteohub,2013-06-26 13:11:00,
2013-06-26 07:16:00,44.4,32.5,31.15,East,90,2.0,6.0,63,0.00,,,0.00,meteohub,2013-06-26 13:16:00,
2013-06-26 07:21:00,44.6,32.0,31.15,East,90,2.0,4.0,61,0.00,,,0.00,meteohub,2013-06-26 13:21:00,
2013-06-26 07:26:00,44.4,32.5,31.15,East,90,6.0,6.0,63,0.00,,,0.00,meteohub,2013-06-26 13:26:00,
2013-06-26 07:31:00,44.6,32.4,31.15,East,90,4.0,6.0,62,0.00,,,0.00,meteohub,2013-06-26 13:31:00,
2013-06-26 07:36:00,45.5,33.3,31.15,SE,135,3.0,6.0,62,0.00,,,0.00,meteohub,2013-06-26 13:36:00,
2013-06-26 07:41:00,46.4,34.2,31.15,East,90,4.0,6.0,62,0.00,,,0.00,meteohub,2013-06-26 13:41:00,
2013-06-26 07:46:00,47.3,34.9,31.15,East,90,3.0,6.0,62,0.00,,,0.00,meteohub,2013-06-26 13:46:00,
2013-06-26 07:51:00,48.6,35.8,31.15,ESE,113,2.0,6.0,61,0.00,,,0.00,meteohub,2013-06-26 13:51:00,
2013-06-26 07:56:00,50.5,36.3,31.16,NE,45,4.0,6.0,58,0.00,,,0.00,meteohub,2013-06-26 13:56:00,
2013-06-26 08:01:00,51.8,36.7,31.15,SE,135,2.0,4.0,56,0.00,,,0.00,meteohub,2013-06-26 14:01:00,
2013-06-26 08:06:00,51.8,36.7,31.15,SE,135,2.0,4.0,56,0.00,,,0.00,meteohub,2013-06-26 14:06:00,
2013-06-26 08:11:00,55.2,37.4,31.15,South,180,2.0,4.0,51,0.00,,,0.00,meteohub,2013-06-26 14:11:00,
2013-06-26 08:16:00,56.7,38.7,31.15,SE,135,2.0,3.0,51,0.00,,,0.00,meteohub,2013-06-26 14:16:00,
2013-06-26 08:21:00,57.9,38.8,31.16,South,180,2.0,4.0,49,0.00,,,0.00,meteohub,2013-06-26 14:21:00,
2013-06-26 08:26:00,59.0,38.8,31.16,South,180,4.0,4.0,47,0.00,,,0.00,meteohub,2013-06-26 14:26:00,
2013-06-26 08:32:00,59.9,37.9,31.15,South,180,5.0,6.0,44,0.00,,,0.00,meteohub,2013-06-26 14:32:00,
2013-06-26 08:37:00,60.1,38.1,31.16,South,180,3.0,8.0,44,0.00,,,0.00,meteohub,2013-06-26 14:37:00,
2013-06-26 08:42:00,60.4,38.5,31.15,South,180,3.0,8.0,44,0.00,,,0.00,meteohub,2013-06-26 14:42:00,
2013-06-26 08:47:00,61.2,37.9,31.16,South,180,5.0,8.0,42,0.00,,,0.00,meteohub,2013-06-26 14:47:00,
2013-06-26 08:52:00,61.5,38.3,31.15,South,180,4.0,7.0,42,0.00,,,0.00,meteohub,2013-06-26 14:52:00,
2013-06-26 08:57:00,62.2,38.3,31.15,South,180,6.0,7.0,41,0.00,,,0.00,meteohub,2013-06-26 14:57:00,
2013-06-26 09:02:00,62.8,38.1,31.16,SE,135,4.0,6.0,40,0.00,,,0.00,meteohub,2013-06-26 15:02:00,
2013-06-26 09:07:00,63.9,38.5,31.15,South,180,4.0,6.0,39,0.00,,,0.00,meteohub,2013-06-26 15:07:00,
2013-06-26 09:12:00,64.6,39.0,31.15,SE,135,4.0,6.0,39,0.00,,,0.00,meteohub,2013-06-26 15:12:00,
2013-06-26 09:17:00,65.5,39.9,31.15,SE,135,2.0,5.0,39,0.00,,,0.00,meteohub,2013-06-26 15:17:00,
2013-06-26 09:22:00,66.4,39.4,31.15,South,180,4.0,5.0,37,0.00,,,0.00,meteohub,2013-06-26 15:22:00,
2013-06-26 09:27:00,67.1,39.2,31.15,East,90,2.0,5.0,36,0.00,,,0.00,meteohub,2013-06-26 15:27:00,
2013-06-26 09:32:00,68.0,39.4,31.15,North,0,2.0,4.0,35,0.00,,,0.00,meteohub,2013-06-26 15:32:00,
2013-06-26 09:37:00,68.7,39.9,31.15,North,0,2.0,4.0,35,0.00,,,0.00,meteohub,2013-06-26 15:37:00,
2013-06-26 09:42:00,69.1,40.3,31.15,NE,45,2.0,3.0,35,0.00,,,0.00,meteohub,2013-06-26 15:42:00,
2013-06-26 09:47:00,70.0,37.9,31.15,South,180,2.0,3.0,31,0.00,,,0.00,meteohub,2013-06-26 15:47:00,
2013-06-26 09:52:00,71.1,38.8,31.15,NE,45,8.0,8.0,31,0.00,,,0.00,meteohub,2013-06-26 15:52:00,
2013-06-26 09:57:00,71.4,38.3,31.15,SE,135,2.0,9.0,30,0.00,,,0.00,meteohub,2013-06-26 15:57:00,
2013-06-26 10:02:00,72.1,37.2,31.15,SE,135,4.0,9.0,28,0.00,,,0.00,meteohub,2013-06-26 16:02:00,
2013-06-26 10:07:00,72.1,37.2,31.15,SE,135,4.0,9.0,28,0.00,,,0.00,meteohub,2013-06-26 16:07:00,
2013-06-26 10:12:00,73.4,36.5,31.15,South,180,3.0,5.0,26,0.00,,,0.00,meteohub,2013-06-26 16:12:00,
2013-06-26 10:17:00,73.9,36.9,31.15,North,0,3.0,4.0,26,0.00,,,0.00,meteohub,2013-06-26 16:17:00,
2013-06-26 10:22:00,74.3,35.2,31.15,North,0,5.0,5.0,24,0.00,,,0.00,meteohub,2013-06-26 16:22:00,
2013-06-26 10:27:00,74.1,35.1,31.15,NW,315,3.0,6.0,24,0.00,,,0.00,meteohub,2013-06-26 16:27:00,
2013-06-26 10:32:00,74.3,35.2,31.15,East,90,4.0,7.0,24,0.00,,,0.00,meteohub,2013-06-26 16:32:00,
2013-06-26 10:37:00,74.3,34.2,31.15,East,90,3.0,7.0,23,0.00,,,0.00,meteohub,2013-06-26 16:37:00,
2013-06-26 10:42:00,74.3,33.1,31.15,North,0,2.0,10.0,22,0.00,,,0.00,meteohub,2013-06-26 16:42:00,
2013-06-26 10:47:00,75.0,35.8,31.15,NW,315,7.0,10.0,24,0.00,,,0.00,meteohub,2013-06-26 16:47:00,
2013-06-26 10:52:00,75.2,32.5,31.15,NW,315,4.0,10.0,21,0.00,,,0.00,meteohub,2013-06-26 16:52:00,
2013-06-26 10:57:00,75.0,33.6,31.15,WNW,293,2.0,8.0,22,0.00,,,0.00,meteohub,2013-06-26 16:57:00,
2013-06-26 11:02:00,75.7,34.2,31.16,South,180,5.0,8.0,22,0.00,,,0.00,meteohub,2013-06-26 17:02:00,
2013-06-26 11:07:00,75.7,33.1,31.16,South,180,3.0,8.0,21,0.00,,,0.00,meteohub,2013-06-26 17:07:00,
2013-06-26 11:12:00,75.6,31.6,31.16,South,180,4.0,7.0,20,0.00,,,0.00,meteohub,2013-06-26 17:12:00,
2013-06-26 11:17:00,75.6,32.9,31.15,NW,315,4.0,7.0,21,0.00,,,0.00,meteohub,2013-06-26 17:17:00,
2013-06-26 11:22:00,75.9,33.3,31.15,NW,315,6.0,10.0,21,0.00,,,0.00,meteohub,2013-06-26 17:22:00,
2013-06-26 11:27:00,76.3,33.4,31.15,East,90,4.0,10.0,21,0.00,,,0.00,meteohub,2013-06-26 17:27:00,
2013-06-26 11:32:00,76.5,33.6,31.16,North,0,3.0,9.0,21,0.00,,,0.00,meteohub,2013-06-26 17:32:00,
2013-06-26 11:37:00,76.8,35.1,31.16,West,270,3.0,9.0,22,0.00,,,0.00,meteohub,2013-06-26 17:37:00,
2013-06-26 11:42:00,76.8,34.0,31.16,West,270,4.0,9.0,21,0.00,,,0.00,meteohub,2013-06-26 17:42:00,
2013-06-26 11:47:00,76.8,34.0,31.15,East,90,3.0,17.0,21,0.00,,,0.00,meteohub,2013-06-26 17:47:00,
2013-06-26 11:52:00,76.8,34.0,31.15,South,180,2.0,17.0,21,0.00,,,0.00,meteohub,2013-06-26 17:52:00,
2013-06-26 11:57:00,77.2,33.1,31.16,East,90,3.0,17.0,20,0.00,,,0.00,meteohub,2013-06-26 17:57:00,
2013-06-26 12:02:00,77.5,33.3,31.15,South,180,4.0,7.0,20,0.00,,,0.00,meteohub,2013-06-26 18:02:00,
2013-06-26 12:07:00,77.5,33.3,31.15,South,180,4.0,7.0,20,0.00,,,0.00,meteohub,2013-06-26 18:07:00,
2013-06-26 12:12:00,77.5,33.3,31.15,South,180,4.0,4.0,20,0.00,,,0.00,meteohub,2013-06-26 18:12:00,
2013-06-26 12:17:00,77.7,33.4,31.15,SW,225,4.0,9.0,20,0.00,,,0.00,meteohub,2013-06-26 18:17:00,
2013-06-26 12:22:00,77.9,33.6,31.15,SW,225,6.0,9.0,20,0.00,,,0.00,meteohub,2013-06-26 18:22:00,
2013-06-26 12:27:00,77.7,33.4,31.15,South,180,5.0,10.0,20,0.00,,,0.00,meteohub,2013-06-26 18:27:00,
2013-06-26 12:32:00,77.9,33.6,31.15,SE,135,3.0,10.0,20,0.00,,,0.00,meteohub,2013-06-26 18:32:00,
2013-06-26 12:37:00,78.3,34.0,31.15,North,0,3.0,10.0,20,0.00,,,0.00,meteohub,2013-06-26 18:37:00,
2013-06-26 12:42:00,78.4,34.0,31.15,South,180,7.0,9.0,20,0.00,,,0.00,meteohub,2013-06-26 18:42:00,
2013-06-26 12:47:00,78.3,31.3,31.15,NW,315,5.0,8.0,18,0.00,,,0.00,meteohub,2013-06-26 18:47:00,
2013-06-26 12:52:00,78.3,31.3,31.15,SW,225,2.0,8.0,18,0.00,,,0.00,meteohub,2013-06-26 18:52:00,
2013-06-26 12:57:00,78.3,31.3,31.15,East,90,2.0,7.0,18,0.00,,,0.00,meteohub,2013-06-26 18:57:00,
2013-06-26 13:02:00,78.3,29.8,31.15,NW,315,7.0,7.0,17,0.00,,,0.00,meteohub,2013-06-26 19:02:00,
2013-06-26 13:07:00,78.1,29.7,31.15,NW,315,4.0,9.0,17,0.00,,,0.00,meteohub,2013-06-26 19:07:00,
2013-06-26 13:12:00,78.3,32.5,31.14,South,180,4.0,9.0,19,0.00,,,0.00,meteohub,2013-06-26 19:12:00,
2013-06-26 13:17:00,78.3,34.0,31.14,West,270,7.0,9.0,20,0.00,,,0.00,meteohub,2013-06-26 19:17:00,
2013-06-26 13:22:00,78.4,34.0,31.14,NE,45,3.0,9.0,20,0.00,,,0.00,meteohub,2013-06-26 19:22:00,
2013-06-26 13:27:00,79.0,33.3,31.14,SW,225,3.0,8.0,19,0.00,,,0.00,meteohub,2013-06-26 19:27:00,
2013-06-26 13:32:00,79.5,33.6,31.14,South,180,2.0,8.0,19,0.00,,,0.00,meteohub,2013-06-26 19:32:00,
2013-06-26 13:37:00,79.9,34.0,31.14,SE,135,4.0,4.0,19,0.00,,,0.00,meteohub,2013-06-26 19:37:00,
2013-06-26 13:42:00,80.1,34.2,31.14,North,0,7.0,7.0,19,0.00,,,0.00,meteohub,2013-06-26 19:42:00,
2013-06-26 13:47:00,79.7,33.8,31.14,North,0,7.0,7.0,19,0.00,,,0.00,meteohub,2013-06-26 19:47:00,
2013-06-26 13:52:00,79.7,33.8,31.13,SW,225,4.0,8.0,19,0.00,,,0.00,meteohub,2013-06-26 19:52:00,
2013-06-26 13:57:00,80.2,34.2,31.13,NE,45,6.0,9.0,19,0.00,,,0.00,meteohub,2013-06-26 19:57:00,
2013-06-26 14:02:00,80.2,34.2,31.13,South,180,7.0,9.0,19,0.00,,,0.00,meteohub,2013-06-26 20:02:00,
2013-06-26 14:07:00,80.2,34.2,31.14,South,180,7.0,7.0,19,0.00,,,0.00,meteohub,2013-06-26 20:07:00,
2013-06-26 14:12:00,80.4,34.3,31.13,NW,315,4.0,7.0,19,0.00,,,0.00,meteohub,2013-06-26 20:12:00,
2013-06-26 14:17:00,80.6,33.3,31.13,North,0,4.0,8.0,18,0.00,,,0.00,meteohub,2013-06-26 20:17:00,
2013-06-26 14:22:00,80.6,33.3,31.13,SE,135,8.0,8.0,18,0.00,,,0.00,meteohub,2013-06-26 20:22:00,
2013-06-26 14:27:00,80.8,33.3,31.13,West,270,7.0,8.0,18,0.00,,,0.00,meteohub,2013-06-26 20:27:00,
2013-06-26 14:32:00,81.0,32.0,31.13,NW,315,10.0,10.0,17,0.00,,,0.00,meteohub,2013-06-26 20:32:00,
2013-06-26 14:37:00,81.0,33.4,31.13,NNW,338,10.0,11.0,18,0.00,,,0.00,meteohub,2013-06-26 20:37:00,
2013-06-26 14:42:00,80.8,31.8,31.13,North,0,5.0,11.0,17,0.00,,,0.00,meteohub,2013-06-26 20:42:00,
2013-06-26 14:47:00,80.8,33.3,31.13,South,180,4.0,11.0,18,0.00,,,0.00,meteohub,2013-06-26 20:47:00,
2013-06-26 14:52:00,81.0,32.0,31.13,SW,225,4.0,10.0,17,0.00,,,0.00,meteohub,2013-06-26 20:52:00,
2013-06-26 14:57:00,81.3,33.8,31.13,NW,315,5.0,8.0,18,0.00,,,0.00,meteohub,2013-06-26 20:57:00,
2013-06-26 15:02:00,81.9,34.2,31.13,NW,315,4.0,8.0,18,0.00,,,0.00,meteohub,2013-06-26 21:02:00,
2013-06-26 15:07:00,81.9,34.2,31.13,West,270,5.0,8.0,18,0.00,,,0.00,meteohub,2013-06-26 21:07:00,
2013-06-26 15:12:00,82.0,34.3,31.13,West,270,5.0,8.0,18,0.00,,,0.00,meteohub,2013-06-26 21:12:00,
2013-06-26 15:17:00,81.9,32.7,31.13,NW,315,8.0,8.0,17,0.00,,,0.00,meteohub,2013-06-26 21:17:00,
2013-06-26 15:22:00,81.7,31.1,31.13,West,270,4.0,8.0,16,0.00,,,0.00,meteohub,2013-06-26 21:22:00,
2013-06-26 15:27:00,81.9,34.2,31.13,NW,315,4.0,11.0,18,0.00,,,0.00,meteohub,2013-06-26 21:27:00,
2013-06-26 15:32:00,82.0,34.3,31.13,NW,315,4.0,11.0,18,0.00,,,0.00,meteohub,2013-06-26 21:32:00,
2013-06-26 15:37:00,82.2,34.5,31.13,East,90,6.0,6.0,18,0.00,,,0.00,meteohub,2013-06-26 21:37:00,
2013-06-26 15:42:00,82.0,34.3,31.12,South,180,5.0,27.0,18,0.00,,,0.00,meteohub,2013-06-26 21:42:00,
2013-06-26 15:47:00,82.2,34.5,31.13,North,0,3.0,27.0,18,0.00,,,0.00,meteohub,2013-06-26 21:47:00,
2013-06-26 15:52:00,82.6,39.9,31.12,NW,315,6.0,27.0,22,0.00,,,0.00,meteohub,2013-06-26 21:52:00,
2013-06-26 15:57:00,82.8,36.3,31.13,ESE,113,7.0,8.0,19,0.00,,,0.00,meteohub,2013-06-26 21:57:00,
2013-06-26 16:03:00,82.6,36.1,31.12,NW,315,8.0,11.0,19,0.00,,,0.00,meteohub,2013-06-26 22:03:00,
2013-06-26 16:08:00,82.0,31.5,31.12,NE,45,4.0,11.0,16,0.00,,,0.00,meteohub,2013-06-26 22:08:00,
2013-06-26 16:13:00,82.0,32.9,31.12,West,270,4.0,11.0,17,0.00,,,0.00,meteohub,2013-06-26 22:13:00,
2013-06-26 16:18:00,82.4,36.0,31.12,NW,315,7.0,8.0,19,0.00,,,0.00,meteohub,2013-06-26 22:18:00,
2013-06-26 16:23:00,82.6,38.7,31.12,SW,225,4.0,10.0,21,0.00,,,0.00,meteohub,2013-06-26 22:23:00,
2013-06-26 16:28:00,82.8,36.3,31.12,NW,315,7.0,10.0,19,0.00,,,0.00,meteohub,2013-06-26 22:28:00,
2013-06-26 16:33:00,82.8,36.3,31.12,NW,315,8.0,10.0,19,0.00,,,0.00,meteohub,2013-06-26 22:33:00,
2013-06-26 16:38:00,82.8,38.8,31.12,NW,315,7.0,8.0,21,0.00,,,0.00,meteohub,2013-06-26 22:38:00,
2013-06-26 16:43:00,82.8,36.3,31.12,SW,225,6.0,8.0,19,0.00,,,0.00,meteohub,2013-06-26 22:43:00,
2013-06-26 16:48:00,82.4,36.0,31.12,South,180,2.0,8.0,19,0.00,,,0.00,meteohub,2013-06-26 22:48:00,
2013-06-26 16:53:00,82.8,37.6,31.12,SW,225,2.0,8.0,20,0.00,,,0.00,meteohub,2013-06-26 22:53:00,
2013-06-26 16:58:00,82.9,39.0,31.12,West,270,2.0,8.0,21,0.00,,,0.00,meteohub,2013-06-26 22:58:00,
2013-06-26 17:03:00,83.3,38.1,31.12,NW,315,6.0,6.0,20,0.00,,,0.00,meteohub,2013-06-26 23:03:00,
2013-06-26 17:08:00,83.1,36.7,31.12,NW,315,6.0,6.0,19,0.00,,,0.00,meteohub,2013-06-26 23:08:00,
2013-06-26 17:13:00,82.8,36.3,31.12,North,0,7.0,9.0,19,0.00,,,0.00,meteohub,2013-06-26 23:13:00,
2013-06-26 17:18:00,82.6,37.4,31.12,NW,315,8.0,9.0,20,0.00,,,0.00,meteohub,2013-06-26 23:18:00,
2013-06-26 17:23:00,82.4,33.3,31.12,North,0,2.0,9.0,17,0.00,,,0.00,meteohub,2013-06-26 23:23:00,
2013-06-26 17:28:00,82.2,30.0,31.12,North,0,5.0,8.0,15,0.00,,,0.00,meteohub,2013-06-26 23:28:00,
2013-06-26 17:33:00,82.2,31.6,31.12,NW,315,6.0,8.0,16,0.00,,,0.00,meteohub,2013-06-26 23:33:00,
2013-06-26 17:38:00,82.2,31.6,31.12,East,90,5.0,8.0,16,0.00,,,0.00,meteohub,2013-06-26 23:38:00,
2013-06-26 17:43:00,82.0,31.5,31.12,NW,315,4.0,8.0,16,0.00,,,0.00,meteohub,2013-06-26 23:43:00,
2013-06-26 17:48:00,82.0,31.5,31.11,North,0,5.0,8.0,16,0.00,,,0.00,meteohub,2013-06-26 23:48:00,
2013-06-26 17:53:00,81.9,31.3,31.11,West,270,4.0,8.0,16,0.00,,,0.00,meteohub,2013-06-26 23:53:00,
2013-06-26 17:58:00,81.9,29.7,31.11,West,270,4.0,8.0,15,0.00,,,0.00,meteohub,2013-06-26 23:58:00,
2013-06-26 18:03:00,81.9,31.3,31.12,North,0,3.0,8.0,16,0.00,,,0.00,meteohub,2013-06-27 00:03:00,
2013-06-26 18:08:00,82.0,34.3,31.12,SW,225,3.0,8.0,18,0.00,,,0.00,meteohub,2013-06-27 00:08:00,
2013-06-26 18:13:00,82.2,34.5,31.11,NW,315,2.0,8.0,18,0.00,,,0.00,meteohub,2013-06-27 00:13:00,
2013-06-26 18:18:00,82.4,38.5,31.11,West,270,4.0,4.0,21,0.00,,,0.00,meteohub,2013-06-27 00:18:00,
2013-06-26 18:23:00,82.4,38.5,31.11,North,0,4.0,4.0,21,0.00,,,0.00,meteohub,2013-06-27 00:23:00,
2013-06-26 18:28:00,82.2,33.1,31.12,NW,315,3.0,6.0,17,0.00,,,0.00,meteohub,2013-06-27 00:28:00,